sensor_id;sensor_type;location;lat;lon;timestamp;P1;durP1;ratioP1;P2;durP2;ratioP2
67721;SDS011;58309;45.292;11.820;2022-10-16T00:00:37;90.50;;;46.20;;
67721;SDS011;58309;45.292;11.820;2022-10-16T00:03:04;90.18;;;47.40;;
67721;SDS011;58309;45.292;11.820;2022-10-16T00:05:31;99.47;;;48.05;;
67721;SDS011;58309;45.292;11.820;2022-10-16T00:07:56;92.65;;;47.72;;
67721;SDS011;58309;45.292;11.820;2022-10-16T00:10:22;95.85;;;48.20;;
67721;SDS011;58309;45.292;11.820;2022-10-16T00:12:48;99.07;;;48.25;;
67721;SDS011;58309;45.292;11.820;2022-10-16T00:15:14;95.93;;;48.53;;
67721;SDS011;58309;45.292;11.820;2022-10-16T00:17:39;98.03;;;48.13;;
67721;SDS011;58309;45.292;11.820;2022-10-16T00:20:05;107.90;;;48.28;;
67721;SDS011;58309;45.292;11.820;2022-10-16T00:22:31;96.78;;;48.08;;
67721;SDS011;58309;45.292;11.820;2022-10-16T00:24:56;93.57;;;48.35;;
67721;SDS011;58309;45.292;11.820;2022-10-16T00:27:22;98.82;;;49.10;;
67721;SDS011;58309;45.292;11.820;2022-10-16T00:29:51;92.45;;;47.20;;
67721;SDS011;58309;45.292;11.820;2022-10-16T00:32:17;98.53;;;50.33;;
67721;SDS011;58309;45.292;11.820;2022-10-16T00:34:43;95.85;;;48.40;;
67721;SDS011;58309;45.292;11.820;2022-10-16T00:37:09;100.03;;;48.65;;
67721;SDS011;58309;45.292;11.820;2022-10-16T00:39:34;99.13;;;48.10;;
67721;SDS011;58309;45.292;11.820;2022-10-16T00:42:00;98.40;;;47.67;;
67721;SDS011;58309;45.292;11.820;2022-10-16T00:44:48;105.50;;;50.20;;
67721;SDS011;58309;45.292;11.820;2022-10-16T00:47:19;100.32;;;49.33;;
67721;SDS011;58309;45.292;11.820;2022-10-16T00:49:51;100.95;;;47.97;;
67721;SDS011;58309;45.292;11.820;2022-10-16T00:52:20;98.53;;;48.67;;
67721;SDS011;58309;45.292;11.820;2022-10-16T00:54:46;93.90;;;48.55;;
67721;SDS011;58309;45.292;11.820;2022-10-16T00:57:13;101.97;;;49.85;;
67721;SDS011;58309;45.292;11.820;2022-10-16T00:59:39;104.63;;;50.28;;
67721;SDS011;58309;45.292;11.820;2022-10-16T01:02:07;95.13;;;48.25;;
67721;SDS011;58309;45.292;11.820;2022-10-16T01:04:35;107.22;;;49.05;;
67721;SDS011;58309;45.292;11.820;2022-10-16T01:07:10;97.25;;;48.08;;
67721;SDS011;58309;45.292;11.820;2022-10-16T01:12:46;96.35;;;47.42;;
67721;SDS011;58309;45.292;11.820;2022-10-16T01:20:37;93.78;;;46.40;;
67721;SDS011;58309;45.292;11.820;2022-10-16T01:25:57;91.93;;;47.33;;
67721;SDS011;58309;45.292;11.820;2022-10-16T01:28:27;95.95;;;46.42;;
67721;SDS011;58309;45.292;11.820;2022-10-16T01:30:58;90.97;;;44.50;;
67721;SDS011;58309;45.292;11.820;2022-10-16T01:33:28;94.72;;;46.65;;
67721;SDS011;58309;45.292;11.820;2022-10-16T01:36:03;94.70;;;47.30;;
67721;SDS011;58309;45.292;11.820;2022-10-16T01:38:38;92.28;;;47.50;;
67721;SDS011;58309;45.292;11.820;2022-10-16T01:41:13;97.90;;;47.20;;
67721;SDS011;58309;45.292;11.820;2022-10-16T01:43:46;104.95;;;48.67;;
67721;SDS011;58309;45.292;11.820;2022-10-16T01:46:18;97.13;;;47.38;;
67721;SDS011;58309;45.292;11.820;2022-10-16T01:48:46;102.13;;;49.38;;
67721;SDS011;58309;45.292;11.820;2022-10-16T01:51:13;103.65;;;49.22;;
67721;SDS011;58309;45.292;11.820;2022-10-16T01:53:42;106.85;;;49.22;;
67721;SDS011;58309;45.292;11.820;2022-10-16T01:56:12;105.03;;;49.92;;
67721;SDS011;58309;45.292;11.820;2022-10-16T01:58:42;108.30;;;49.38;;
67721;SDS011;58309;45.292;11.820;2022-10-16T02:01:12;106.82;;;50.63;;
67721;SDS011;58309;45.292;11.820;2022-10-16T02:03:41;104.28;;;48.55;;
67721;SDS011;58309;45.292;11.820;2022-10-16T02:06:08;101.25;;;50.40;;
67721;SDS011;58309;45.292;11.820;2022-10-16T02:08:34;111.18;;;50.55;;
67721;SDS011;58309;45.292;11.820;2022-10-16T02:11:00;107.00;;;49.70;;
67721;SDS011;58309;45.292;11.820;2022-10-16T02:15:55;112.68;;;50.33;;
67721;SDS011;58309;45.292;11.820;2022-10-16T02:18:21;107.18;;;50.50;;
67721;SDS011;58309;45.292;11.820;2022-10-16T02:20:55;106.60;;;50.83;;
67721;SDS011;58309;45.292;11.820;2022-10-16T02:23:35;110.25;;;49.22;;
67721;SDS011;58309;45.292;11.820;2022-10-16T02:26:07;105.40;;;50.63;;
67721;SDS011;58309;45.292;11.820;2022-10-16T02:28:40;105.20;;;50.65;;
67721;SDS011;58309;45.292;11.820;2022-10-16T02:31:11;105.00;;;50.65;;
67721;SDS011;58309;45.292;11.820;2022-10-16T02:33:38;108.25;;;50.35;;
67721;SDS011;58309;45.292;11.820;2022-10-16T02:36:07;110.13;;;50.33;;
67721;SDS011;58309;45.292;11.820;2022-10-16T02:38:33;113.35;;;51.38;;
67721;SDS011;58309;45.292;11.820;2022-10-16T02:40:59;106.22;;;51.05;;
67721;SDS011;58309;45.292;11.820;2022-10-16T02:43:25;105.05;;;49.85;;
67721;SDS011;58309;45.292;11.820;2022-10-16T02:45:51;101.88;;;50.90;;
67721;SDS011;58309;45.292;11.820;2022-10-16T02:48:17;107.43;;;51.78;;
67721;SDS011;58309;45.292;11.820;2022-10-16T02:50:42;110.18;;;50.97;;
67721;SDS011;58309;45.292;11.820;2022-10-16T02:53:08;110.40;;;51.22;;
67721;SDS011;58309;45.292;11.820;2022-10-16T02:55:33;123.90;;;53.95;;
67721;SDS011;58309;45.292;11.820;2022-10-16T02:57:59;117.05;;;54.85;;
67721;SDS011;58309;45.292;11.820;2022-10-16T03:00:24;113.47;;;53.60;;
67721;SDS011;58309;45.292;11.820;2022-10-16T03:02:50;109.20;;;51.35;;
67721;SDS011;58309;45.292;11.820;2022-10-16T03:05:15;111.65;;;52.00;;
67721;SDS011;58309;45.292;11.820;2022-10-16T03:07:41;115.75;;;53.17;;
67721;SDS011;58309;45.292;11.820;2022-10-16T03:10:06;114.13;;;52.80;;
67721;SDS011;58309;45.292;11.820;2022-10-16T03:12:32;112.53;;;53.53;;
67721;SDS011;58309;45.292;11.820;2022-10-16T03:14:58;110.75;;;53.08;;
67721;SDS011;58309;45.292;11.820;2022-10-16T03:17:24;117.75;;;53.25;;
67721;SDS011;58309;45.292;11.820;2022-10-16T03:19:50;115.78;;;53.22;;
67721;SDS011;58309;45.292;11.820;2022-10-16T03:22:16;118.82;;;56.05;;
67721;SDS011;58309;45.292;11.820;2022-10-16T03:24:41;116.60;;;53.92;;
67721;SDS011;58309;45.292;11.820;2022-10-16T03:27:07;127.47;;;57.35;;
67721;SDS011;58309;45.292;11.820;2022-10-16T03:29:32;128.05;;;56.70;;
67721;SDS011;58309;45.292;11.820;2022-10-16T03:31:58;122.72;;;55.00;;
67721;SDS011;58309;45.292;11.820;2022-10-16T03:34:25;123.00;;;55.17;;
67721;SDS011;58309;45.292;11.820;2022-10-16T03:36:50;129.73;;;57.38;;
67721;SDS011;58309;45.292;11.820;2022-10-16T03:39:16;133.38;;;59.50;;
67721;SDS011;58309;45.292;11.820;2022-10-16T03:41:41;133.65;;;58.67;;
67721;SDS011;58309;45.292;11.820;2022-10-16T03:44:07;131.75;;;56.75;;
67721;SDS011;58309;45.292;11.820;2022-10-16T03:46:32;131.50;;;59.28;;
67721;SDS011;58309;45.292;11.820;2022-10-16T03:48:58;131.98;;;58.17;;
67721;SDS011;58309;45.292;11.820;2022-10-16T03:51:23;133.10;;;58.75;;
67721;SDS011;58309;45.292;11.820;2022-10-16T03:53:49;137.18;;;58.25;;
67721;SDS011;58309;45.292;11.820;2022-10-16T03:56:14;141.20;;;60.15;;
67721;SDS011;58309;45.292;11.820;2022-10-16T03:58:40;145.35;;;60.80;;
67721;SDS011;58309;45.292;11.820;2022-10-16T04:01:06;140.38;;;61.30;;
67721;SDS011;58309;45.292;11.820;2022-10-16T04:03:31;143.93;;;62.22;;
67721;SDS011;58309;45.292;11.820;2022-10-16T04:05:57;152.57;;;62.30;;
67721;SDS011;58309;45.292;11.820;2022-10-16T04:08:22;144.20;;;61.70;;
67721;SDS011;58309;45.292;11.820;2022-10-16T04:10:48;142.68;;;62.05;;
67721;SDS011;58309;45.292;11.820;2022-10-16T04:13:14;157.57;;;64.47;;
67721;SDS011;58309;45.292;11.820;2022-10-16T04:15:39;152.88;;;64.15;;
67721;SDS011;58309;45.292;11.820;2022-10-16T04:18:05;162.85;;;66.43;;
67721;SDS011;58309;45.292;11.820;2022-10-16T04:20:31;163.07;;;65.35;;
67721;SDS011;58309;45.292;11.820;2022-10-16T04:22:57;151.25;;;65.40;;
67721;SDS011;58309;45.292;11.820;2022-10-16T04:25:23;165.32;;;66.57;;
67721;SDS011;58309;45.292;11.820;2022-10-16T04:27:48;168.35;;;67.82;;
67721;SDS011;58309;45.292;11.820;2022-10-16T04:30:14;157.52;;;66.35;;
67721;SDS011;58309;45.292;11.820;2022-10-16T04:32:39;168.13;;;69.22;;
67721;SDS011;58309;45.292;11.820;2022-10-16T04:35:06;176.35;;;69.10;;
67721;SDS011;58309;45.292;11.820;2022-10-16T04:37:31;170.65;;;69.22;;
67721;SDS011;58309;45.292;11.820;2022-10-16T04:39:57;163.07;;;67.80;;
67721;SDS011;58309;45.292;11.820;2022-10-16T04:42:22;167.88;;;68.32;;
67721;SDS011;58309;45.292;11.820;2022-10-16T04:44:48;163.65;;;66.75;;
67721;SDS011;58309;45.292;11.820;2022-10-16T04:47:13;166.65;;;67.03;;
67721;SDS011;58309;45.292;11.820;2022-10-16T04:49:39;165.65;;;67.05;;
67721;SDS011;58309;45.292;11.820;2022-10-16T04:52:05;167.10;;;66.90;;
67721;SDS011;58309;45.292;11.820;2022-10-16T04:54:30;169.73;;;67.57;;
67721;SDS011;58309;45.292;11.820;2022-10-16T04:56:56;174.38;;;68.30;;
67721;SDS011;58309;45.292;11.820;2022-10-16T04:59:22;175.48;;;68.50;;
67721;SDS011;58309;45.292;11.820;2022-10-16T05:01:47;166.27;;;68.65;;
67721;SDS011;58309;45.292;11.820;2022-10-16T05:04:13;179.07;;;69.32;;
67721;SDS011;58309;45.292;11.820;2022-10-16T05:06:40;182.23;;;69.00;;
67721;SDS011;58309;45.292;11.820;2022-10-16T05:09:06;167.63;;;65.13;;
67721;SDS011;58309;45.292;11.820;2022-10-16T05:11:32;190.18;;;68.88;;
67721;SDS011;58309;45.292;11.820;2022-10-16T05:13:57;173.38;;;67.28;;
67721;SDS011;58309;45.292;11.820;2022-10-16T05:16:23;194.40;;;71.00;;
67721;SDS011;58309;45.292;11.820;2022-10-16T05:18:48;190.05;;;70.03;;
67721;SDS011;58309;45.292;11.820;2022-10-16T05:21:14;194.60;;;71.53;;
67721;SDS011;58309;45.292;11.820;2022-10-16T05:23:39;202.73;;;72.95;;
67721;SDS011;58309;45.292;11.820;2022-10-16T05:26:05;195.70;;;73.05;;
67721;SDS011;58309;45.292;11.820;2022-10-16T05:28:31;188.32;;;71.63;;
67721;SDS011;58309;45.292;11.820;2022-10-16T05:30:56;204.52;;;74.25;;
67721;SDS011;58309;45.292;11.820;2022-10-16T05:33:23;196.02;;;72.85;;
67721;SDS011;58309;45.292;11.820;2022-10-16T05:35:50;201.13;;;73.47;;
67721;SDS011;58309;45.292;11.820;2022-10-16T05:38:17;193.20;;;73.85;;
67721;SDS011;58309;45.292;11.820;2022-10-16T05:40:42;193.70;;;73.57;;
67721;SDS011;58309;45.292;11.820;2022-10-16T05:43:08;191.57;;;73.13;;
67721;SDS011;58309;45.292;11.820;2022-10-16T05:45:34;191.90;;;72.75;;
67721;SDS011;58309;45.292;11.820;2022-10-16T05:48:00;190.93;;;74.07;;
67721;SDS011;58309;45.292;11.820;2022-10-16T05:50:26;194.63;;;73.50;;
67721;SDS011;58309;45.292;11.820;2022-10-16T05:52:52;185.70;;;74.10;;
67721;SDS011;58309;45.292;11.820;2022-10-16T05:55:17;179.50;;;70.80;;
67721;SDS011;58309;45.292;11.820;2022-10-16T05:57:43;177.40;;;70.72;;
67721;SDS011;58309;45.292;11.820;2022-10-16T06:00:09;176.98;;;70.15;;
67721;SDS011;58309;45.292;11.820;2022-10-16T06:02:35;170.45;;;69.38;;
67721;SDS011;58309;45.292;11.820;2022-10-16T06:05:00;167.50;;;67.63;;
67721;SDS011;58309;45.292;11.820;2022-10-16T06:07:26;168.48;;;66.75;;
67721;SDS011;58309;45.292;11.820;2022-10-16T06:09:52;168.93;;;70.03;;
67721;SDS011;58309;45.292;11.820;2022-10-16T06:12:18;150.57;;;65.40;;
67721;SDS011;58309;45.292;11.820;2022-10-16T06:14:44;152.60;;;66.00;;
67721;SDS011;58309;45.292;11.820;2022-10-16T06:17:12;158.80;;;66.30;;
67721;SDS011;58309;45.292;11.820;2022-10-16T06:19:38;150.40;;;64.35;;
67721;SDS011;58309;45.292;11.820;2022-10-16T06:22:04;150.68;;;63.67;;
67721;SDS011;58309;45.292;11.820;2022-10-16T06:24:29;150.98;;;64.22;;
67721;SDS011;58309;45.292;11.820;2022-10-16T06:26:56;143.75;;;62.20;;
67721;SDS011;58309;45.292;11.820;2022-10-16T06:29:21;151.35;;;64.15;;
67721;SDS011;58309;45.292;11.820;2022-10-16T06:31:47;143.35;;;65.00;;
67721;SDS011;58309;45.292;11.820;2022-10-16T06:34:12;141.45;;;64.13;;
67721;SDS011;58309;45.292;11.820;2022-10-16T06:36:38;144.02;;;61.17;;
67721;SDS011;58309;45.292;11.820;2022-10-16T06:39:04;144.27;;;63.97;;
67721;SDS011;58309;45.292;11.820;2022-10-16T06:41:32;134.15;;;61.95;;
67721;SDS011;58309;45.292;11.820;2022-10-16T06:43:58;137.55;;;59.40;;
67721;SDS011;58309;45.292;11.820;2022-10-16T06:46:24;128.43;;;60.55;;
67721;SDS011;58309;45.292;11.820;2022-10-16T06:48:51;129.50;;;60.85;;
67721;SDS011;58309;45.292;11.820;2022-10-16T06:51:19;129.65;;;61.13;;
67721;SDS011;58309;45.292;11.820;2022-10-16T06:53:52;120.90;;;58.47;;
67721;SDS011;58309;45.292;11.820;2022-10-16T06:56:20;124.45;;;60.28;;
67721;SDS011;58309;45.292;11.820;2022-10-16T06:58:48;132.57;;;59.22;;
67721;SDS011;58309;45.292;11.820;2022-10-16T07:01:14;127.03;;;60.60;;
67721;SDS011;58309;45.292;11.820;2022-10-16T07:03:42;126.65;;;60.28;;
67721;SDS011;58309;45.292;11.820;2022-10-16T07:06:10;128.40;;;59.10;;
67721;SDS011;58309;45.292;11.820;2022-10-16T07:08:38;130.68;;;59.28;;
67721;SDS011;58309;45.292;11.820;2022-10-16T07:11:05;123.45;;;58.88;;
67721;SDS011;58309;45.292;11.820;2022-10-16T07:13:33;125.57;;;59.35;;
67721;SDS011;58309;45.292;11.820;2022-10-16T07:16:06;127.82;;;61.70;;
67721;SDS011;58309;45.292;11.820;2022-10-16T07:18:36;121.88;;;58.15;;
67721;SDS011;58309;45.292;11.820;2022-10-16T07:21:04;119.45;;;57.65;;
67721;SDS011;58309;45.292;11.820;2022-10-16T07:23:36;127.65;;;60.40;;
67721;SDS011;58309;45.292;11.820;2022-10-16T07:26:03;118.55;;;58.13;;
67721;SDS011;58309;45.292;11.820;2022-10-16T07:28:30;118.35;;;57.25;;
67721;SDS011;58309;45.292;11.820;2022-10-16T07:31:00;120.70;;;56.13;;
67721;SDS011;58309;45.292;11.820;2022-10-16T07:33:30;118.35;;;57.35;;
67721;SDS011;58309;45.292;11.820;2022-10-16T07:35:56;117.20;;;55.88;;
67721;SDS011;58309;45.292;11.820;2022-10-16T07:38:22;114.65;;;56.63;;
67721;SDS011;58309;45.292;11.820;2022-10-16T07:40:55;118.28;;;55.75;;
67721;SDS011;58309;45.292;11.820;2022-10-16T07:43:21;110.13;;;54.05;;
67721;SDS011;58309;45.292;11.820;2022-10-16T07:45:47;106.07;;;54.20;;
67721;SDS011;58309;45.292;11.820;2022-10-16T07:48:14;108.05;;;53.88;;
67721;SDS011;58309;45.292;11.820;2022-10-16T07:50:40;100.25;;;53.35;;
67721;SDS011;58309;45.292;11.820;2022-10-16T07:53:06;107.15;;;53.88;;
67721;SDS011;58309;45.292;11.820;2022-10-16T07:55:32;107.55;;;55.78;;
67721;SDS011;58309;45.292;11.820;2022-10-16T07:57:58;106.20;;;54.03;;
67721;SDS011;58309;45.292;11.820;2022-10-16T08:00:23;109.10;;;55.45;;
67721;SDS011;58309;45.292;11.820;2022-10-16T08:02:48;107.93;;;53.78;;
67721;SDS011;58309;45.292;11.820;2022-10-16T08:05:14;106.53;;;54.15;;
67721;SDS011;58309;45.292;11.820;2022-10-16T08:07:40;96.95;;;51.65;;
67721;SDS011;58309;45.292;11.820;2022-10-16T08:10:05;99.38;;;51.75;;
67721;SDS011;58309;45.292;11.820;2022-10-16T08:12:31;102.07;;;54.13;;
67721;SDS011;58309;45.292;11.820;2022-10-16T08:14:57;96.18;;;50.70;;
67721;SDS011;58309;45.292;11.820;2022-10-16T08:17:23;105.82;;;52.95;;
67721;SDS011;58309;45.292;11.820;2022-10-16T08:19:48;103.25;;;53.35;;
67721;SDS011;58309;45.292;11.820;2022-10-16T08:22:14;101.22;;;53.88;;
67721;SDS011;58309;45.292;11.820;2022-10-16T08:24:40;102.55;;;53.78;;
67721;SDS011;58309;45.292;11.820;2022-10-16T08:27:06;97.90;;;52.72;;
67721;SDS011;58309;45.292;11.820;2022-10-16T08:29:32;100.80;;;51.83;;
67721;SDS011;58309;45.292;11.820;2022-10-16T08:31:57;88.53;;;49.45;;
67721;SDS011;58309;45.292;11.820;2022-10-16T08:34:23;88.82;;;48.55;;
67721;SDS011;58309;45.292;11.820;2022-10-16T08:36:48;85.57;;;48.67;;
67721;SDS011;58309;45.292;11.820;2022-10-16T08:39:15;94.20;;;50.22;;
67721;SDS011;58309;45.292;11.820;2022-10-16T08:50:18;77.47;;;46.47;;
67721;SDS011;58309;45.292;11.820;2022-10-16T08:52:49;79.38;;;48.40;;
67721;SDS011;58309;45.292;11.820;2022-10-16T08:55:19;80.50;;;46.47;;
67721;SDS011;58309;45.292;11.820;2022-10-16T08:57:58;77.10;;;45.30;;
67721;SDS011;58309;45.292;11.820;2022-10-16T09:00:25;72.47;;;46.47;;
67721;SDS011;58309;45.292;11.820;2022-10-16T09:11:03;71.00;;;45.70;;
67721;SDS011;58309;45.292;11.820;2022-10-16T09:16:28;72.90;;;44.47;;
67721;SDS011;58309;45.292;11.820;2022-10-16T09:21:47;70.07;;;43.78;;
67721;SDS011;58309;45.292;11.820;2022-10-16T09:24:20;68.65;;;44.33;;
67721;SDS011;58309;45.292;11.820;2022-10-16T09:26:49;67.85;;;43.72;;
67721;SDS011;58309;45.292;11.820;2022-10-16T09:29:18;66.55;;;42.53;;
67721;SDS011;58309;45.292;11.820;2022-10-16T09:31:46;63.33;;;42.45;;
67721;SDS011;58309;45.292;11.820;2022-10-16T09:34:32;65.28;;;43.08;;
67721;SDS011;58309;45.292;11.820;2022-10-16T09:37:01;65.20;;;41.08;;
67721;SDS011;58309;45.292;11.820;2022-10-16T09:41:55;63.97;;;40.97;;
67721;SDS011;58309;45.292;11.820;2022-10-16T09:44:26;61.40;;;40.28;;
67721;SDS011;58309;45.292;11.820;2022-10-16T09:49:29;57.85;;;39.80;;
67721;SDS011;58309;45.292;11.820;2022-10-16T09:52:11;53.95;;;37.63;;
67721;SDS011;58309;45.292;11.820;2022-10-16T09:54:48;55.75;;;37.92;;
67721;SDS011;58309;45.292;11.820;2022-10-16T09:57:18;53.88;;;37.35;;
67721;SDS011;58309;45.292;11.820;2022-10-16T10:02:14;51.72;;;37.65;;
67721;SDS011;58309;45.292;11.820;2022-10-16T10:04:44;48.22;;;36.03;;
67721;SDS011;58309;45.292;11.820;2022-10-16T10:07:30;51.67;;;35.90;;
67721;SDS011;58309;45.292;11.820;2022-10-16T10:10:02;48.47;;;33.95;;
67721;SDS011;58309;45.292;11.820;2022-10-16T10:12:30;52.40;;;35.80;;
67721;SDS011;58309;45.292;11.820;2022-10-16T10:15:13;54.22;;;36.22;;
67721;SDS011;58309;45.292;11.820;2022-10-16T10:17:49;50.72;;;34.50;;
67721;SDS011;58309;45.292;11.820;2022-10-16T10:20:29;53.80;;;36.15;;
67721;SDS011;58309;45.292;11.820;2022-10-16T10:22:59;51.13;;;34.15;;
67721;SDS011;58309;45.292;11.820;2022-10-16T10:28:10;48.50;;;31.40;;
67721;SDS011;58309;45.292;11.820;2022-10-16T10:30:57;47.85;;;31.17;;
67721;SDS011;58309;45.292;11.820;2022-10-16T10:36:07;40.55;;;28.27;;
67721;SDS011;58309;45.292;11.820;2022-10-16T10:39:03;40.08;;;28.42;;
67721;SDS011;58309;45.292;11.820;2022-10-16T11:00:57;37.13;;;27.95;;
67721;SDS011;58309;45.292;11.820;2022-10-16T11:06:40;42.15;;;29.38;;
67721;SDS011;58309;45.292;11.820;2022-10-16T11:12:12;43.67;;;30.60;;
67721;SDS011;58309;45.292;11.820;2022-10-16T11:17:52;48.47;;;30.58;;
67721;SDS011;58309;45.292;11.820;2022-10-16T11:20:32;41.45;;;29.10;;
67721;SDS011;58309;45.292;11.820;2022-10-16T11:23:21;41.70;;;29.27;;
67721;SDS011;58309;45.292;11.820;2022-10-16T11:25:52;42.08;;;28.42;;
67721;SDS011;58309;45.292;11.820;2022-10-16T11:28:26;37.28;;;27.48;;
67721;SDS011;58309;45.292;11.820;2022-10-16T11:36:47;41.40;;;26.35;;
67721;SDS011;58309;45.292;11.820;2022-10-16T11:39:29;35.47;;;25.85;;
67721;SDS011;58309;45.292;11.820;2022-10-16T11:55:45;36.95;;;26.92;;
67721;SDS011;58309;45.292;11.820;2022-10-16T12:00:53;37.22;;;27.33;;
67721;SDS011;58309;45.292;11.820;2022-10-16T12:03:41;37.47;;;26.45;;
67721;SDS011;58309;45.292;11.820;2022-10-16T12:09:04;36.28;;;25.20;;
67721;SDS011;58309;45.292;11.820;2022-10-16T12:11:32;36.10;;;25.15;;
67721;SDS011;58309;45.292;11.820;2022-10-16T12:14:07;35.40;;;25.65;;
67721;SDS011;58309;45.292;11.820;2022-10-16T12:19:25;39.92;;;27.23;;
67721;SDS011;58309;45.292;11.820;2022-10-16T12:21:57;37.87;;;26.50;;
67721;SDS011;58309;45.292;11.820;2022-10-16T12:24:38;39.55;;;26.33;;
67721;SDS011;58309;45.292;11.820;2022-10-16T12:27:17;40.65;;;27.73;;
67721;SDS011;58309;45.292;11.820;2022-10-16T12:29:49;44.83;;;28.90;;
67721;SDS011;58309;45.292;11.820;2022-10-16T12:32:28;39.63;;;27.85;;
67721;SDS011;58309;45.292;11.820;2022-10-16T12:34:56;39.65;;;26.95;;
67721;SDS011;58309;45.292;11.820;2022-10-16T12:37:27;41.00;;;27.08;;
67721;SDS011;58309;45.292;11.820;2022-10-16T12:39:55;37.45;;;27.42;;
67721;SDS011;58309;45.292;11.820;2022-10-16T12:44:58;42.10;;;27.88;;
67721;SDS011;58309;45.292;11.820;2022-10-16T12:49:56;38.58;;;27.08;;
67721;SDS011;58309;45.292;11.820;2022-10-16T12:52:35;41.35;;;27.08;;
67721;SDS011;58309;45.292;11.820;2022-10-16T12:55:04;42.28;;;27.55;;
67721;SDS011;58309;45.292;11.820;2022-10-16T13:14:32;43.83;;;29.20;;
67721;SDS011;58309;45.292;11.820;2022-10-16T13:17:12;45.60;;;29.65;;
67721;SDS011;58309;45.292;11.820;2022-10-16T13:20:00;48.60;;;30.17;;
67721;SDS011;58309;45.292;11.820;2022-10-16T13:27:55;42.28;;;28.73;;
67721;SDS011;58309;45.292;11.820;2022-10-16T13:30:25;39.90;;;28.48;;
67721;SDS011;58309;45.292;11.820;2022-10-16T13:35:37;41.22;;;27.83;;
67721;SDS011;58309;45.292;11.820;2022-10-16T13:38:24;45.17;;;29.35;;
67721;SDS011;58309;45.292;11.820;2022-10-16T13:43:45;41.83;;;28.65;;
67721;SDS011;58309;45.292;11.820;2022-10-16T13:46:20;40.42;;;29.55;;
67721;SDS011;58309;45.292;11.820;2022-10-16T13:48:59;39.95;;;28.92;;
67721;SDS011;58309;45.292;11.820;2022-10-16T13:51:29;44.63;;;31.30;;
67721;SDS011;58309;45.292;11.820;2022-10-16T13:53:55;43.05;;;29.90;;
67721;SDS011;58309;45.292;11.820;2022-10-16T13:56:22;42.67;;;29.40;;
67721;SDS011;58309;45.292;11.820;2022-10-16T13:58:59;44.53;;;28.98;;
67721;SDS011;58309;45.292;11.820;2022-10-16T14:01:48;42.50;;;29.52;;
67721;SDS011;58309;45.292;11.820;2022-10-16T14:04:13;43.42;;;29.35;;
67721;SDS011;58309;45.292;11.820;2022-10-16T14:06:40;41.83;;;29.45;;
67721;SDS011;58309;45.292;11.820;2022-10-16T14:09:09;40.85;;;28.88;;
67721;SDS011;58309;45.292;11.820;2022-10-16T14:11:48;42.92;;;29.42;;
67721;SDS011;58309;45.292;11.820;2022-10-16T14:14:17;42.42;;;29.02;;
67721;SDS011;58309;45.292;11.820;2022-10-16T14:16:45;41.85;;;29.25;;
67721;SDS011;58309;45.292;11.820;2022-10-16T14:21:49;42.63;;;30.40;;
67721;SDS011;58309;45.292;11.820;2022-10-16T14:24:27;44.33;;;29.40;;
67721;SDS011;58309;45.292;11.820;2022-10-16T14:26:59;43.58;;;30.52;;
67721;SDS011;58309;45.292;11.820;2022-10-16T14:29:27;38.38;;;29.35;;
67721;SDS011;58309;45.292;11.820;2022-10-16T14:31:59;39.63;;;29.83;;
67721;SDS011;58309;45.292;11.820;2022-10-16T14:34:33;41.47;;;28.80;;
67721;SDS011;58309;45.292;11.820;2022-10-16T14:37:25;45.63;;;29.98;;
67721;SDS011;58309;45.292;11.820;2022-10-16T14:39:53;43.08;;;29.95;;
67721;SDS011;58309;45.292;11.820;2022-10-16T14:42:20;45.08;;;31.00;;
67721;SDS011;58309;45.292;11.820;2022-10-16T14:44:49;45.13;;;31.80;;
67721;SDS011;58309;45.292;11.820;2022-10-16T14:47:18;43.95;;;31.25;;
67721;SDS011;58309;45.292;11.820;2022-10-16T14:49:50;45.78;;;30.33;;
67721;SDS011;58309;45.292;11.820;2022-10-16T14:52:16;48.20;;;31.00;;
67721;SDS011;58309;45.292;11.820;2022-10-16T14:54:41;43.25;;;30.70;;
67721;SDS011;58309;45.292;11.820;2022-10-16T14:57:22;44.25;;;30.90;;
67721;SDS011;58309;45.292;11.820;2022-10-16T14:59:51;43.90;;;31.05;;
67721;SDS011;58309;45.292;11.820;2022-10-16T15:02:31;45.97;;;32.22;;
67721;SDS011;58309;45.292;11.820;2022-10-16T15:05:07;48.20;;;33.00;;
67721;SDS011;58309;45.292;11.820;2022-10-16T15:07:44;45.92;;;32.05;;
67721;SDS011;58309;45.292;11.820;2022-10-16T15:10:10;49.55;;;31.80;;
67721;SDS011;58309;45.292;11.820;2022-10-16T15:12:37;53.47;;;33.15;;
67721;SDS011;58309;45.292;11.820;2022-10-16T15:15:09;44.63;;;31.63;;
67721;SDS011;58309;45.292;11.820;2022-10-16T15:17:46;46.65;;;32.70;;
67721;SDS011;58309;45.292;11.820;2022-10-16T15:20:13;50.65;;;33.38;;
67721;SDS011;58309;45.292;11.820;2022-10-16T15:22:38;50.35;;;32.85;;
67721;SDS011;58309;45.292;11.820;2022-10-16T15:27:54;52.90;;;34.00;;
67721;SDS011;58309;45.292;11.820;2022-10-16T15:30:19;50.92;;;35.20;;
67721;SDS011;58309;45.292;11.820;2022-10-16T15:32:45;50.20;;;34.13;;
67721;SDS011;58309;45.292;11.820;2022-10-16T15:35:10;52.78;;;34.35;;
67721;SDS011;58309;45.292;11.820;2022-10-16T15:37:36;48.42;;;34.42;;
67721;SDS011;58309;45.292;11.820;2022-10-16T15:40:02;52.85;;;34.83;;
67721;SDS011;58309;45.292;11.820;2022-10-16T15:42:28;51.67;;;33.83;;
67721;SDS011;58309;45.292;11.820;2022-10-16T15:44:53;50.25;;;33.90;;
67721;SDS011;58309;45.292;11.820;2022-10-16T15:47:18;52.00;;;34.45;;
67721;SDS011;58309;45.292;11.820;2022-10-16T15:49:47;52.50;;;34.80;;
67721;SDS011;58309;45.292;11.820;2022-10-16T15:52:12;54.20;;;35.72;;
67721;SDS011;58309;45.292;11.820;2022-10-16T15:54:38;56.88;;;35.03;;
67721;SDS011;58309;45.292;11.820;2022-10-16T15:57:03;50.38;;;35.83;;
67721;SDS011;58309;45.292;11.820;2022-10-16T15:59:30;58.08;;;36.53;;
67721;SDS011;58309;45.292;11.820;2022-10-16T16:01:55;55.13;;;36.70;;
67721;SDS011;58309;45.292;11.820;2022-10-16T16:04:21;54.08;;;37.00;;
67721;SDS011;58309;45.292;11.820;2022-10-16T16:06:46;58.45;;;37.70;;
67721;SDS011;58309;45.292;11.820;2022-10-16T16:09:12;60.92;;;37.92;;
67721;SDS011;58309;45.292;11.820;2022-10-16T16:11:39;58.88;;;38.60;;
67721;SDS011;58309;45.292;11.820;2022-10-16T16:14:05;56.92;;;37.13;;
67721;SDS011;58309;45.292;11.820;2022-10-16T16:16:31;56.85;;;37.08;;
67721;SDS011;58309;45.292;11.820;2022-10-16T16:19:02;61.63;;;37.92;;
67721;SDS011;58309;45.292;11.820;2022-10-16T16:21:28;62.15;;;39.60;;
67721;SDS011;58309;45.292;11.820;2022-10-16T16:23:53;60.75;;;39.05;;
67721;SDS011;58309;45.292;11.820;2022-10-16T16:26:23;66.28;;;42.20;;
67721;SDS011;58309;45.292;11.820;2022-10-16T16:28:51;68.80;;;41.38;;
67721;SDS011;58309;45.292;11.820;2022-10-16T16:31:17;64.57;;;40.70;;
67721;SDS011;58309;45.292;11.820;2022-10-16T16:33:43;68.60;;;40.90;;
67721;SDS011;58309;45.292;11.820;2022-10-16T16:36:09;65.53;;;40.65;;